sensor_id;sensor_type;location;lat;lon;timestamp;P1;durP1;ratioP1;P2;durP2;ratioP2
17987;SDS011;9119;50.932;5.342;2022-08-21T00:00:12;13.97;;;3.23;;
17987;SDS011;9119;50.932;5.342;2022-08-21T00:03:02;7.03;;;3.10;;
17987;SDS011;9119;50.932;5.342;2022-08-21T00:05:30;8.93;;;3.20;;
17987;SDS011;9119;50.932;5.342;2022-08-21T00:07:56;8.77;;;3.27;;
17987;SDS011;9119;50.932;5.342;2022-08-21T00:10:22;12.67;;;3.60;;
17987;SDS011;9119;50.932;5.342;2022-08-21T00:12:49;9.57;;;3.50;;
17987;SDS011;9119;50.932;5.342;2022-08-21T00:15:17;9.40;;;3.60;;
17987;SDS011;9119;50.932;5.342;2022-08-21T00:17:47;11.63;;;3.63;;
17987;SDS011;9119;50.932;5.342;2022-08-21T00:20:14;10.00;;;3.53;;
17987;SDS011;9119;50.932;5.342;2022-08-21T00:22:41;12.57;;;3.50;;
17987;SDS011;9119;50.932;5.342;2022-08-21T00:25:07;9.47;;;3.17;;
17987;SDS011;9119;50.932;5.342;2022-08-21T00:27:34;9.20;;;3.50;;
17987;SDS011;9119;50.932;5.342;2022-08-21T00:30:01;12.13;;;3.73;;
17987;SDS011;9119;50.932;5.342;2022-08-21T00:32:28;11.23;;;3.67;;
17987;SDS011;9119;50.932;5.342;2022-08-21T00:34:54;10.47;;;3.53;;
17987;SDS011;9119;50.932;5.342;2022-08-21T00:37:20;10.20;;;3.80;;
17987;SDS011;9119;50.932;5.342;2022-08-21T00:39:46;10.23;;;3.33;;
17987;SDS011;9119;50.932;5.342;2022-08-21T00:42:12;10.20;;;3.93;;
17987;SDS011;9119;50.932;5.342;2022-08-21T00:44:42;12.93;;;3.97;;
17987;SDS011;9119;50.932;5.342;2022-08-21T00:47:11;16.73;;;3.77;;
17987;SDS011;9119;50.932;5.342;2022-08-21T00:49:38;9.00;;;3.40;;
17987;SDS011;9119;50.932;5.342;2022-08-21T00:52:05;15.37;;;3.73;;
17987;SDS011;9119;50.932;5.342;2022-08-21T00:54:34;9.07;;;3.40;;
17987;SDS011;9119;50.932;5.342;2022-08-21T00:57:05;13.03;;;3.73;;
17987;SDS011;9119;50.932;5.342;2022-08-21T00:59:36;7.87;;;3.03;;
17987;SDS011;9119;50.932;5.342;2022-08-21T01:02:04;10.83;;;3.47;;
17987;SDS011;9119;50.932;5.342;2022-08-21T01:04:32;10.57;;;3.57;;
17987;SDS011;9119;50.932;5.342;2022-08-21T01:06:58;8.23;;;3.47;;
17987;SDS011;9119;50.932;5.342;2022-08-21T01:09:24;18.27;;;3.37;;
17987;SDS011;9119;50.932;5.342;2022-08-21T01:11:51;9.63;;;3.23;;
17987;SDS011;9119;50.932;5.342;2022-08-21T01:14:17;12.47;;;3.67;;
17987;SDS011;9119;50.932;5.342;2022-08-21T01:16:46;7.00;;;3.20;;
17987;SDS011;9119;50.932;5.342;2022-08-21T01:19:15;11.27;;;3.60;;
17987;SDS011;9119;50.932;5.342;2022-08-21T01:21:42;12.57;;;3.33;;
17987;SDS011;9119;50.932;5.342;2022-08-21T01:24:08;9.57;;;3.83;;
17987;SDS011;9119;50.932;5.342;2022-08-21T01:26:35;9.37;;;3.20;;
17987;SDS011;9119;50.932;5.342;2022-08-21T01:29:03;8.50;;;3.37;;
17987;SDS011;9119;50.932;5.342;2022-08-21T01:31:39;15.43;;;4.03;;
17987;SDS011;9119;50.932;5.342;2022-08-21T01:34:05;10.40;;;3.90;;
17987;SDS011;9119;50.932;5.342;2022-08-21T01:36:32;11.60;;;3.63;;
17987;SDS011;9119;50.932;5.342;2022-08-21T01:38:58;11.93;;;3.60;;
17987;SDS011;9119;50.932;5.342;2022-08-21T01:41:24;10.20;;;3.37;;
17987;SDS011;9119;50.932;5.342;2022-08-21T01:43:50;11.13;;;3.13;;
17987;SDS011;9119;50.932;5.342;2022-08-21T01:46:15;10.53;;;3.20;;
17987;SDS011;9119;50.932;5.342;2022-08-21T01:48:41;12.37;;;3.77;;
17987;SDS011;9119;50.932;5.342;2022-08-21T01:51:07;8.87;;;3.57;;
17987;SDS011;9119;50.932;5.342;2022-08-21T01:53:35;10.20;;;3.60;;
17987;SDS011;9119;50.932;5.342;2022-08-21T01:56:02;13.63;;;3.73;;
17987;SDS011;9119;50.932;5.342;2022-08-21T01:58:30;11.03;;;4.03;;
17987;SDS011;9119;50.932;5.342;2022-08-21T02:00:56;10.43;;;3.77;;
17987;SDS011;9119;50.932;5.342;2022-08-21T02:03:22;10.63;;;3.40;;
17987;SDS011;9119;50.932;5.342;2022-08-21T02:05:47;10.10;;;3.60;;
17987;SDS011;9119;50.932;5.342;2022-08-21T02:08:13;9.53;;;3.43;;
17987;SDS011;9119;50.932;5.342;2022-08-21T02:10:38;11.20;;;3.47;;
17987;SDS011;9119;50.932;5.342;2022-08-21T02:13:06;7.77;;;3.60;;
17987;SDS011;9119;50.932;5.342;2022-08-21T02:15:32;7.93;;;3.30;;
17987;SDS011;9119;50.932;5.342;2022-08-21T02:17:59;11.30;;;3.50;;
17987;SDS011;9119;50.932;5.342;2022-08-21T02:20:45;16.10;;;4.13;;
17987;SDS011;9119;50.932;5.342;2022-08-21T02:23:11;11.57;;;3.47;;
17987;SDS011;9119;50.932;5.342;2022-08-21T02:25:37;10.33;;;3.43;;
17987;SDS011;9119;50.932;5.342;2022-08-21T02:28:04;10.40;;;3.30;;
17987;SDS011;9119;50.932;5.342;2022-08-21T02:30:34;10.17;;;3.30;;
17987;SDS011;9119;50.932;5.342;2022-08-21T02:33:05;12.73;;;4.20;;
17987;SDS011;9119;50.932;5.342;2022-08-21T02:35:31;11.93;;;3.90;;
17987;SDS011;9119;50.932;5.342;2022-08-21T02:38:01;10.07;;;3.47;;
17987;SDS011;9119;50.932;5.342;2022-08-21T02:40:30;12.03;;;3.40;;
17987;SDS011;9119;50.932;5.342;2022-08-21T02:42:58;11.10;;;3.03;;
17987;SDS011;9119;50.932;5.342;2022-08-21T02:45:25;11.97;;;3.70;;
17987;SDS011;9119;50.932;5.342;2022-08-21T02:47:53;11.27;;;3.40;;
17987;SDS011;9119;50.932;5.342;2022-08-21T02:50:22;9.77;;;3.60;;
17987;SDS011;9119;50.932;5.342;2022-08-21T02:52:50;10.10;;;3.43;;
17987;SDS011;9119;50.932;5.342;2022-08-21T02:55:17;12.73;;;3.67;;
17987;SDS011;9119;50.932;5.342;2022-08-21T02:57:45;10.77;;;3.23;;
17987;SDS011;9119;50.932;5.342;2022-08-21T03:00:12;8.23;;;3.20;;
17987;SDS011;9119;50.932;5.342;2022-08-21T03:02:39;9.27;;;3.30;;
17987;SDS011;9119;50.932;5.342;2022-08-21T03:05:06;17.57;;;3.47;;
17987;SDS011;9119;50.932;5.342;2022-08-21T03:07:33;13.87;;;3.50;;
17987;SDS011;9119;50.932;5.342;2022-08-21T03:09:59;11.20;;;3.90;;
17987;SDS011;9119;50.932;5.342;2022-08-21T03:12:25;8.47;;;3.53;;
17987;SDS011;9119;50.932;5.342;2022-08-21T03:14:51;10.17;;;3.27;;
17987;SDS011;9119;50.932;5.342;2022-08-21T03:17:16;11.93;;;3.33;;
17987;SDS011;9119;50.932;5.342;2022-08-21T03:19:42;14.20;;;4.40;;
17987;SDS011;9119;50.932;5.342;2022-08-21T03:22:07;11.50;;;3.87;;
17987;SDS011;9119;50.932;5.342;2022-08-21T03:24:33;9.10;;;3.13;;
17987;SDS011;9119;50.932;5.342;2022-08-21T03:26:59;9.40;;;3.77;;
17987;SDS011;9119;50.932;5.342;2022-08-21T03:29:25;15.90;;;3.93;;
17987;SDS011;9119;50.932;5.342;2022-08-21T03:31:50;15.03;;;3.60;;
17987;SDS011;9119;50.932;5.342;2022-08-21T03:34:19;10.60;;;3.20;;
17987;SDS011;9119;50.932;5.342;2022-08-21T03:36:45;11.13;;;3.43;;
17987;SDS011;9119;50.932;5.342;2022-08-21T03:39:11;8.80;;;3.57;;
17987;SDS011;9119;50.932;5.342;2022-08-21T03:41:36;10.03;;;3.17;;
17987;SDS011;9119;50.932;5.342;2022-08-21T03:44:02;14.40;;;3.60;;
17987;SDS011;9119;50.932;5.342;2022-08-21T03:46:28;10.70;;;3.53;;
17987;SDS011;9119;50.932;5.342;2022-08-21T03:48:53;11.93;;;3.47;;
17987;SDS011;9119;50.932;5.342;2022-08-21T03:51:20;12.77;;;4.10;;
17987;SDS011;9119;50.932;5.342;2022-08-21T03:53:46;13.53;;;3.73;;
17987;SDS011;9119;50.932;5.342;2022-08-21T03:56:12;8.83;;;3.53;;
17987;SDS011;9119;50.932;5.342;2022-08-21T03:58:37;8.50;;;3.63;;
17987;SDS011;9119;50.932;5.342;2022-08-21T04:01:04;12.80;;;3.30;;
17987;SDS011;9119;50.932;5.342;2022-08-21T04:03:31;13.10;;;3.87;;
17987;SDS011;9119;50.932;5.342;2022-08-21T04:05:59;11.00;;;3.60;;
17987;SDS011;9119;50.932;5.342;2022-08-21T04:08:25;15.50;;;3.67;;
17987;SDS011;9119;50.932;5.342;2022-08-21T04:10:51;11.43;;;3.53;;
17987;SDS011;9119;50.932;5.342;2022-08-21T04:13:20;11.50;;;3.70;;
17987;SDS011;9119;50.932;5.342;2022-08-21T04:15:45;15.27;;;3.50;;
17987;SDS011;9119;50.932;5.342;2022-08-21T04:18:11;14.33;;;3.57;;
17987;SDS011;9119;50.932;5.342;2022-08-21T04:20:38;11.57;;;3.13;;
17987;SDS011;9119;50.932;5.342;2022-08-21T04:23:05;11.97;;;3.97;;
17987;SDS011;9119;50.932;5.342;2022-08-21T04:25:31;12.90;;;3.40;;
17987;SDS011;9119;50.932;5.342;2022-08-21T04:27:57;9.77;;;3.27;;
17987;SDS011;9119;50.932;5.342;2022-08-21T04:30:23;11.30;;;3.10;;
17987;SDS011;9119;50.932;5.342;2022-08-21T04:32:49;7.70;;;3.33;;
17987;SDS011;9119;50.932;5.342;2022-08-21T04:35:16;11.07;;;3.63;;
17987;SDS011;9119;50.932;5.342;2022-08-21T04:37:45;15.83;;;4.03;;
17987;SDS011;9119;50.932;5.342;2022-08-21T04:40:12;9.50;;;2.93;;
17987;SDS011;9119;50.932;5.342;2022-08-21T04:42:50;13.87;;;3.30;;
17987;SDS011;9119;50.932;5.342;2022-08-21T04:45:22;7.60;;;2.90;;
17987;SDS011;9119;50.932;5.342;2022-08-21T04:47:53;8.70;;;3.30;;
17987;SDS011;9119;50.932;5.342;2022-08-21T04:50:22;11.17;;;3.17;;
17987;SDS011;9119;50.932;5.342;2022-08-21T04:52:51;10.07;;;3.00;;
17987;SDS011;9119;50.932;5.342;2022-08-21T04:55:17;9.87;;;3.23;;
17987;SDS011;9119;50.932;5.342;2022-08-21T04:57:43;7.33;;;3.20;;
17987;SDS011;9119;50.932;5.342;2022-08-21T05:00:10;13.27;;;3.40;;
17987;SDS011;9119;50.932;5.342;2022-08-21T05:02:37;11.17;;;3.50;;
17987;SDS011;9119;50.932;5.342;2022-08-21T05:05:04;12.20;;;3.17;;
17987;SDS011;9119;50.932;5.342;2022-08-21T05:07:30;13.03;;;3.30;;
17987;SDS011;9119;50.932;5.342;2022-08-21T05:09:57;10.23;;;3.07;;
17987;SDS011;9119;50.932;5.342;2022-08-21T05:12:24;10.00;;;2.90;;
17987;SDS011;9119;50.932;5.342;2022-08-21T05:14:50;8.47;;;2.80;;
17987;SDS011;9119;50.932;5.342;2022-08-21T05:17:16;14.13;;;3.37;;
17987;SDS011;9119;50.932;5.342;2022-08-21T05:19:41;14.50;;;2.83;;
17987;SDS011;9119;50.932;5.342;2022-08-21T05:22:07;8.40;;;3.03;;
17987;SDS011;9119;50.932;5.342;2022-08-21T05:24:34;10.00;;;3.30;;
17987;SDS011;9119;50.932;5.342;2022-08-21T05:26:59;7.50;;;2.67;;
17987;SDS011;9119;50.932;5.342;2022-08-21T05:29:25;10.97;;;2.67;;
17987;SDS011;9119;50.932;5.342;2022-08-21T05:31:51;14.33;;;3.20;;
17987;SDS011;9119;50.932;5.342;2022-08-21T05:34:18;12.50;;;3.10;;
17987;SDS011;9119;50.932;5.342;2022-08-21T05:36:44;7.53;;;2.73;;
17987;SDS011;9119;50.932;5.342;2022-08-21T05:39:10;9.80;;;3.60;;
17987;SDS011;9119;50.932;5.342;2022-08-21T05:41:36;13.07;;;3.70;;
17987;SDS011;9119;50.932;5.342;2022-08-21T05:44:02;9.10;;;2.90;;
17987;SDS011;9119;50.932;5.342;2022-08-21T05:46:28;8.23;;;2.43;;
17987;SDS011;9119;50.932;5.342;2022-08-21T05:48:53;6.60;;;2.73;;
17987;SDS011;9119;50.932;5.342;2022-08-21T05:51:19;8.13;;;2.53;;
17987;SDS011;9119;50.932;5.342;2022-08-21T05:53:44;8.40;;;2.43;;
17987;SDS011;9119;50.932;5.342;2022-08-21T05:56:10;9.70;;;2.90;;
17987;SDS011;9119;50.932;5.342;2022-08-21T05:58:37;11.77;;;2.77;;
17987;SDS011;9119;50.932;5.342;2022-08-21T06:01:03;12.17;;;3.17;;
17987;SDS011;9119;50.932;5.342;2022-08-21T06:03:31;9.03;;;2.53;;
17987;SDS011;9119;50.932;5.342;2022-08-21T06:05:58;14.10;;;3.33;;
17987;SDS011;9119;50.932;5.342;2022-08-21T06:08:25;12.40;;;2.97;;
17987;SDS011;9119;50.932;5.342;2022-08-21T06:10:51;10.20;;;2.53;;
17987;SDS011;9119;50.932;5.342;2022-08-21T06:13:19;7.93;;;2.63;;
17987;SDS011;9119;50.932;5.342;2022-08-21T06:15:45;11.67;;;3.03;;
17987;SDS011;9119;50.932;5.342;2022-08-21T06:18:11;10.33;;;3.20;;
17987;SDS011;9119;50.932;5.342;2022-08-21T06:20:37;9.37;;;3.27;;
17987;SDS011;9119;50.932;5.342;2022-08-21T06:23:03;10.67;;;3.27;;
17987;SDS011;9119;50.932;5.342;2022-08-21T06:25:29;9.87;;;3.37;;
17987;SDS011;9119;50.932;5.342;2022-08-21T06:28:05;10.33;;;3.00;;
17987;SDS011;9119;50.932;5.342;2022-08-21T06:30:33;10.80;;;3.20;;
17987;SDS011;9119;50.932;5.342;2022-08-21T06:33:01;8.87;;;2.97;;
17987;SDS011;9119;50.932;5.342;2022-08-21T06:35:27;8.53;;;2.73;;
17987;SDS011;9119;50.932;5.342;2022-08-21T06:37:54;11.60;;;2.80;;
17987;SDS011;9119;50.932;5.342;2022-08-21T06:40:20;12.00;;;3.00;;
17987;SDS011;9119;50.932;5.342;2022-08-21T06:42:46;13.03;;;3.57;;
17987;SDS011;9119;50.932;5.342;2022-08-21T06:45:12;11.27;;;2.77;;
17987;SDS011;9119;50.932;5.342;2022-08-21T06:47:38;11.40;;;3.00;;
17987;SDS011;9119;50.932;5.342;2022-08-21T06:50:04;9.27;;;3.33;;
17987;SDS011;9119;50.932;5.342;2022-08-21T06:52:33;8.63;;;3.07;;
17987;SDS011;9119;50.932;5.342;2022-08-21T06:55:02;13.53;;;3.17;;
17987;SDS011;9119;50.932;5.342;2022-08-21T06:57:30;11.23;;;2.83;;
17987;SDS011;9119;50.932;5.342;2022-08-21T06:59:56;8.87;;;2.80;;
17987;SDS011;9119;50.932;5.342;2022-08-21T07:02:22;11.53;;;3.13;;
17987;SDS011;9119;50.932;5.342;2022-08-21T07:04:47;8.53;;;2.87;;
17987;SDS011;9119;50.932;5.342;2022-08-21T07:07:13;13.07;;;3.00;;
17987;SDS011;9119;50.932;5.342;2022-08-21T07:09:39;10.17;;;2.70;;
17987;SDS011;9119;50.932;5.342;2022-08-21T07:12:04;10.93;;;2.67;;
17987;SDS011;9119;50.932;5.342;2022-08-21T07:14:30;17.83;;;3.13;;
17987;SDS011;9119;50.932;5.342;2022-08-21T07:16:56;8.47;;;2.40;;
17987;SDS011;9119;50.932;5.342;2022-08-21T07:19:22;11.10;;;2.43;;
17987;SDS011;9119;50.932;5.342;2022-08-21T07:21:48;6.47;;;2.23;;
17987;SDS011;9119;50.932;5.342;2022-08-21T07:24:14;9.87;;;3.10;;
17987;SDS011;9119;50.932;5.342;2022-08-21T07:26:39;7.80;;;2.40;;
17987;SDS011;9119;50.932;5.342;2022-08-21T07:29:05;13.57;;;2.57;;
17987;SDS011;9119;50.932;5.342;2022-08-21T07:31:32;12.90;;;2.30;;
17987;SDS011;9119;50.932;5.342;2022-08-21T07:33:57;7.70;;;2.20;;
17987;SDS011;9119;50.932;5.342;2022-08-21T07:36:23;10.40;;;2.30;;
17987;SDS011;9119;50.932;5.342;2022-08-21T07:38:49;10.53;;;2.70;;
17987;SDS011;9119;50.932;5.342;2022-08-21T07:41:19;8.90;;;2.43;;
17987;SDS011;9119;50.932;5.342;2022-08-21T07:43:46;9.90;;;2.50;;
17987;SDS011;9119;50.932;5.342;2022-08-21T07:46:12;8.70;;;2.60;;
17987;SDS011;9119;50.932;5.342;2022-08-21T07:48:38;17.87;;;3.43;;
17987;SDS011;9119;50.932;5.342;2022-08-21T07:51:06;9.60;;;2.37;;
17987;SDS011;9119;50.932;5.342;2022-08-21T07:53:33;10.97;;;2.30;;
17987;SDS011;9119;50.932;5.342;2022-08-21T07:56:00;7.63;;;1.90;;
17987;SDS011;9119;50.932;5.342;2022-08-21T07:58:27;5.77;;;2.17;;
17987;SDS011;9119;50.932;5.342;2022-08-21T08:00:52;10.37;;;2.43;;
17987;SDS011;9119;50.932;5.342;2022-08-21T08:03:18;7.87;;;2.30;;
17987;SDS011;9119;50.932;5.342;2022-08-21T08:05:43;10.77;;;2.30;;
17987;SDS011;9119;50.932;5.342;2022-08-21T08:08:09;12.27;;;2.97;;
17987;SDS011;9119;50.932;5.342;2022-08-21T08:10:35;11.33;;;2.40;;
17987;SDS011;9119;50.932;5.342;2022-08-21T08:13:03;14.43;;;3.13;;
17987;SDS011;9119;50.932;5.342;2022-08-21T08:15:29;12.17;;;3.17;;
17987;SDS011;9119;50.932;5.342;2022-08-21T08:17:55;15.30;;;2.80;;
17987;SDS011;9119;50.932;5.342;2022-08-21T08:20:22;6.70;;;2.07;;
17987;SDS011;9119;50.932;5.342;2022-08-21T08:22:50;6.43;;;2.13;;
17987;SDS011;9119;50.932;5.342;2022-08-21T08:25:16;13.67;;;2.23;;
17987;SDS011;9119;50.932;5.342;2022-08-21T08:27:42;10.80;;;2.57;;
17987;SDS011;9119;50.932;5.342;2022-08-21T08:30:09;7.30;;;2.00;;
17987;SDS011;9119;50.932;5.342;2022-08-21T08:32:36;12.70;;;2.80;;
17987;SDS011;9119;50.932;5.342;2022-08-21T08:35:03;9.97;;;2.13;;
17987;SDS011;9119;50.932;5.342;2022-08-21T08:37:29;8.63;;;2.17;;
17987;SDS011;9119;50.932;5.342;2022-08-21T08:39:55;9.63;;;2.30;;
17987;SDS011;9119;50.932;5.342;2022-08-21T08:42:24;10.43;;;2.17;;
17987;SDS011;9119;50.932;5.342;2022-08-21T08:45:02;9.67;;;2.03;;
17987;SDS011;9119;50.932;5.342;2022-08-21T08:47:40;8.20;;;1.80;;
17987;SDS011;9119;50.932;5.342;2022-08-21T08:50:15;6.90;;;1.63;;
17987;SDS011;9119;50.932;5.342;2022-08-21T08:52:48;7.53;;;1.60;;
17987;SDS011;9119;50.932;5.342;2022-08-21T08:55:33;6.00;;;2.10;;
17987;SDS011;9119;50.932;5.342;2022-08-21T08:58:02;10.53;;;2.20;;
17987;SDS011;9119;50.932;5.342;2022-08-21T09:00:29;7.10;;;2.30;;
17987;SDS011;9119;50.932;5.342;2022-08-21T09:02:56;5.00;;;1.70;;
17987;SDS011;9119;50.932;5.342;2022-08-21T09:05:44;6.23;;;1.63;;
17987;SDS011;9119;50.932;5.342;2022-08-21T09:10:44;8.10;;;2.27;;
17987;SDS011;9119;50.932;5.342;2022-08-21T09:13:31;7.03;;;1.90;;
17987;SDS011;9119;50.932;5.342;2022-08-21T09:16:42;8.77;;;2.30;;
17987;SDS011;9119;50.932;5.342;2022-08-21T09:19:39;5.70;;;1.83;;
17987;SDS011;9119;50.932;5.342;2022-08-21T09:22:28;7.73;;;1.93;;
17987;SDS011;9119;50.932;5.342;2022-08-21T09:25:22;8.73;;;2.10;;
17987;SDS011;9119;50.932;5.342;2022-08-21T09:27:50;7.13;;;1.87;;
17987;SDS011;9119;50.932;5.342;2022-08-21T09:30:16;6.30;;;1.80;;
17987;SDS011;9119;50.932;5.342;2022-08-21T09:32:44;9.67;;;1.73;;
17987;SDS011;9119;50.932;5.342;2022-08-21T09:35:14;13.00;;;2.00;;
17987;SDS011;9119;50.932;5.342;2022-08-21T09:40:25;9.13;;;1.83;;
17987;SDS011;9119;50.932;5.342;2022-08-21T09:43:02;7.87;;;2.20;;
17987;SDS011;9119;50.932;5.342;2022-08-21T09:45:41;7.60;;;2.17;;
17987;SDS011;9119;50.932;5.342;2022-08-21T09:48:08;11.30;;;2.90;;
17987;SDS011;9119;50.932;5.342;2022-08-21T09:50:34;8.03;;;1.80;;
17987;SDS011;9119;50.932;5.342;2022-08-21T09:53:00;5.07;;;1.50;;
17987;SDS011;9119;50.932;5.342;2022-08-21T09:55:39;9.33;;;2.00;;
17987;SDS011;9119;50.932;5.342;2022-08-21T09:58:33;9.03;;;1.60;;
17987;SDS011;9119;50.932;5.342;2022-08-21T10:01:01;7.90;;;1.93;;
17987;SDS011;9119;50.932;5.342;2022-08-21T10:03:29;5.37;;;1.70;;
17987;SDS011;9119;50.932;5.342;2022-08-21T10:05:56;10.73;;;1.90;;
17987;SDS011;9119;50.932;5.342;2022-08-21T10:08:23;5.77;;;1.73;;
17987;SDS011;9119;50.932;5.342;2022-08-21T10:10:51;6.07;;;1.77;;
17987;SDS011;9119;50.932;5.342;2022-08-21T10:22:32;8.07;;;2.17;;
17987;SDS011;9119;50.932;5.342;2022-08-21T10:32:37;8.43;;;1.83;;
17987;SDS011;9119;50.932;5.342;2022-08-21T10:55:19;9.60;;;2.20;;
17987;SDS011;9119;50.932;5.342;2022-08-21T10:57:56;10.13;;;1.60;;
17987;SDS011;9119;50.932;5.342;2022-08-21T11:00:30;4.83;;;1.70;;
17987;SDS011;9119;50.932;5.342;2022-08-21T11:03:05;7.20;;;1.97;;
17987;SDS011;9119;50.932;5.342;2022-08-21T11:08:12;7.20;;;1.90;;
17987;SDS011;9119;50.932;5.342;2022-08-21T11:16:23;6.07;;;1.70;;
17987;SDS011;9119;50.932;5.342;2022-08-21T11:19:08;12.50;;;1.70;;
17987;SDS011;9119;50.932;5.342;2022-08-21T11:21:42;6.60;;;2.00;;
17987;SDS011;9119;50.932;5.342;2022-08-21T11:24:20;6.13;;;1.52;;
17987;SDS011;9119;50.932;5.342;2022-08-21T11:29:49;8.30;;;1.53;;
17987;SDS011;9119;50.932;5.342;2022-08-21T11:32:54;6.60;;;1.85;;
17987;SDS011;9119;50.932;5.342;2022-08-21T11:43:43;7.65;;;1.85;;
17987;SDS011;9119;50.932;5.342;2022-08-21T11:48:56;8.83;;;2.13;;
17987;SDS011;9119;50.932;5.342;2022-08-21T11:51:48;9.93;;;2.00;;
17987;SDS011;9119;50.932;5.342;2022-08-21T11:57:07;7.73;;;2.00;;
17987;SDS011;9119;50.932;5.342;2022-08-21T11:59:48;13.93;;;2.20;;
17987;SDS011;9119;50.932;5.342;2022-08-21T12:02:28;9.90;;;2.10;;
17987;SDS011;9119;50.932;5.342;2022-08-21T12:05:00;9.43;;;1.90;;
17987;SDS011;9119;50.932;5.342;2022-08-21T12:10:10;6.47;;;2.00;;
17987;SDS011;9119;50.932;5.342;2022-08-21T12:12:39;6.37;;;1.83;;
17987;SDS011;9119;50.932;5.342;2022-08-21T12:18:04;12.47;;;2.20;;
17987;SDS011;9119;50.932;5.342;2022-08-21T12:26:28;7.97;;;1.80;;
17987;SDS011;9119;50.932;5.342;2022-08-21T12:29:14;8.40;;;1.90;;
17987;SDS011;9119;50.932;5.342;2022-08-21T12:31:52;7.63;;;1.77;;
17987;SDS011;9119;50.932;5.342;2022-08-21T12:34:24;8.37;;;2.00;;
17987;SDS011;9119;50.932;5.342;2022-08-21T12:36:58;10.93;;;1.80;;
17987;SDS011;9119;50.932;5.342;2022-08-21T12:39:30;10.37;;;2.27;;
17987;SDS011;9119;50.932;5.342;2022-08-21T12:41:59;7.97;;;2.10;;
17987;SDS011;9119;50.932;5.342;2022-08-21T12:44:56;8.53;;;2.47;;
17987;SDS011;9119;50.932;5.342;2022-08-21T12:47:43;11.37;;;2.20;;
17987;SDS011;9119;50.932;5.342;2022-08-21T12:50:20;10.87;;;2.23;;
17987;SDS011;9119;50.932;5.342;2022-08-21T12:53:10;9.03;;;2.07;;
17987;SDS011;9119;50.932;5.342;2022-08-21T12:55:48;7.27;;;1.80;;
17987;SDS011;9119;50.932;5.342;2022-08-21T12:58:22;9.93;;;2.13;;
17987;SDS011;9119;50.932;5.342;2022-08-21T13:00:57;12.93;;;2.00;;
17987;SDS011;9119;50.932;5.342;2022-08-21T13:03:29;10.23;;;1.80;;
17987;SDS011;9119;50.932;5.342;2022-08-21T13:05:56;9.17;;;2.10;;
17987;SDS011;9119;50.932;5.342;2022-08-21T13:08:23;12.03;;;2.27;;
17987;SDS011;9119;50.932;5.342;2022-08-21T13:10:55;10.40;;;2.10;;
17987;SDS011;9119;50.932;5.342;2022-08-21T13:13:25;8.17;;;1.90;;
17987;SDS011;9119;50.932;5.342;2022-08-21T13:15:56;11.50;;;2.23;;
17987;SDS011;9119;50.932;5.342;2022-08-21T13:18:29;8.83;;;1.90;;
17987;SDS011;9119;50.932;5.342;2022-08-21T13:21:05;8.80;;;2.40;;
17987;SDS011;9119;50.932;5.342;2022-08-21T13:23:34;9.90;;;2.20;;
17987;SDS011;9119;50.932;5.342;2022-08-21T13:26:00;11.13;;;2.33;;
17987;SDS011;9119;50.932;5.342;2022-08-21T13:28:34;7.30;;;1.77;;
17987;SDS011;9119;50.932;5.342;2022-08-21T13:31:05;9.93;;;2.30;;
17987;SDS011;9119;50.932;5.342;2022-08-21T13:33:35;7.80;;;1.90;;
17987;SDS011;9119;50.932;5.342;2022-08-21T13:38:33;9.40;;;2.03;;
17987;SDS011;9119;50.932;5.342;2022-08-21T13:41:19;10.93;;;1.90;;
17987;SDS011;9119;50.932;5.342;2022-08-21T13:43:58;9.80;;;2.10;;
17987;SDS011;9119;50.932;5.342;2022-08-21T13:46:38;10.70;;;2.30;;
17987;SDS011;9119;50.932;5.342;2022-08-21T13:49:04;13.17;;;2.07;;
17987;SDS011;9119;50.932;5.342;2022-08-21T13:51:31;9.13;;;2.17;;
17987;SDS011;9119;50.932;5.342;2022-08-21T13:53:58;13.13;;;2.23;;
17987;SDS011;9119;50.932;5.342;2022-08-21T13:56:30;9.10;;;2.23;;
17987;SDS011;9119;50.932;5.342;2022-08-21T13:58:58;6.80;;;2.13;;
17987;SDS011;9119;50.932;5.342;2022-08-21T14:01:36;12.37;;;2.53;;
17987;SDS011;9119;50.932;5.342;2022-08-21T14:04:18;5.40;;;1.90;;
17987;SDS011;9119;50.932;5.342;2022-08-21T14:06:49;13.63;;;2.27;;
17987;SDS011;9119;50.932;5.342;2022-08-21T14:09:35;6.43;;;2.00;;
17987;SDS011;9119;50.932;5.342;2022-08-21T14:12:15;9.40;;;2.00;;
17987;SDS011;9119;50.932;5.342;2022-08-21T14:14:44;6.33;;;1.80;;
17987;SDS011;9119;50.932;5.342;2022-08-21T14:17:11;9.20;;;2.40;;
17987;SDS011;9119;50.932;5.342;2022-08-21T14:19:43;9.57;;;2.23;;
17987;SDS011;9119;50.932;5.342;2022-08-21T14:27:51;10.23;;;3.00;;
17987;SDS011;9119;50.932;5.342;2022-08-21T14:33:01;10.77;;;2.77;;
17987;SDS011;9119;50.932;5.342;2022-08-21T14:35:28;13.27;;;2.33;;
17987;SDS011;9119;50.932;5.342;2022-08-21T14:37:54;12.63;;;2.33;;
17987;SDS011;9119;50.932;5.342;2022-08-21T14:40:21;10.87;;;2.47;;
17987;SDS011;9119;50.932;5.342;2022-08-21T14:42:49;7.43;;;2.10;;
17987;SDS011;9119;50.932;5.342;2022-08-21T14:45:25;10.03;;;2.63;;
17987;SDS011;9119;50.932;5.342;2022-08-21T14:47:52;6.77;;;1.60;;
17987;SDS011;9119;50.932;5.342;2022-08-21T14:50:18;10.23;;;2.43;;
17987;SDS011;9119;50.932;5.342;2022-08-21T14:52:44;11.43;;;2.17;;
17987;SDS011;9119;50.932;5.342;2022-08-21T14:55:11;8.47;;;2.20;;
17987;SDS011;9119;50.932;5.342;2022-08-21T14:57:39;8.73;;;1.97;;
17987;SDS011;9119;50.932;5.342;2022-08-21T15:00:08;10.03;;;2.50;;
17987;SDS011;9119;50.932;5.342;2022-08-21T15:02:35;11.27;;;2.20;;
17987;SDS011;9119;50.932;5.342;2022-08-21T15:05:01;18.93;;;5.20;;
17987;SDS011;9119;50.932;5.342;2022-08-21T15:07:27;10.27;;;2.83;;
17987;SDS011;9119;50.932;5.342;2022-08-21T15:09:53;9.00;;;2.33;;
17987;SDS011;9119;50.932;5.342;2022-08-21T15:12:19;8.57;;;2.73;;
17987;SDS011;9119;50.932;5.342;2022-08-21T15:14:44;8.27;;;2.03;;
17987;SDS011;9119;50.932;5.342;2022-08-21T15:17:10;6.90;;;2.10;;
17987;SDS011;9119;50.932;5.342;2022-08-21T15:19:37;11.63;;;2.47;;
17987;SDS011;9119;50.932;5.342;2022-08-21T15:22:03;7.63;;;2.33;;
17987;SDS011;9119;50.932;5.342;2022-08-21T15:24:29;7.27;;;2.13;;
17987;SDS011;9119;50.932;5.342;2022-08-21T15:26:55;10.13;;;2.53;;
17987;SDS011;9119;50.932;5.342;2022-08-21T15:29:23;12.53;;;4.60;;
17987;SDS011;9119;50.932;5.342;2022-08-21T15:31:57;10.47;;;2.27;;
17987;SDS011;9119;50.932;5.342;2022-08-21T15:34:25;6.90;;;2.00;;
17987;SDS011;9119;50.932;5.342;2022-08-21T15:36:53;20.73;;;5.40;;
17987;SDS011;9119;50.932;5.342;2022-08-21T15:39:22;9.10;;;4.33;;
17987;SDS011;9119;50.932;5.342;2022-08-21T15:41:49;8.37;;;2.30;;
17987;SDS011;9119;50.932;5.342;2022-08-21T15:44:15;17.33;;;5.30;;
17987;SDS011;9119;50.932;5.342;2022-08-21T15:46:41;15.10;;;4.67;;
17987;SDS011;9119;50.932;5.342;2022-08-21T15:49:07;11.80;;;2.30;;
17987;SDS011;9119;50.932;5.342;2022-08-21T15:51:33;14.77;;;3.10;;
17987;SDS011;9119;50.932;5.342;2022-08-21T15:53:59;7.47;;;2.60;;
17987;SDS011;9119;50.932;5.342;2022-08-21T15:56:26;11.97;;;2.33;;
17987;SDS011;9119;50.932;5.342;2022-08-21T15:59:15;8.03;;;2.10;;
17987;SDS011;9119;50.932;5.342;2022-08-21T16:01:47;9.13;;;2.37;;
17987;SDS011;9119;50.932;5.342;2022-08-21T16:04:21;6.47;;;2.10;;
17987;SDS011;9119;50.932;5.342;2022-08-21T16:06:49;9.33;;;2.60;;
17987;SDS011;9119;50.932;5.342;2022-08-21T16:09:14;11.43;;;2.43;;
17987;SDS011;9119;50.932;5.342;2022-08-21T16:11:41;13.63;;;2.80;;
17987;SDS011;9119;50.932;5.342;2022-08-21T16:14:07;11.00;;;2.17;;
17987;SDS011;9119;50.932;5.342;2022-08-21T16:16:35;10.00;;;2.40;;
17987;SDS011;9119;50.932;5.342;2022-08-21T16:19:02;8.37;;;2.03;;
17987;SDS011;9119;50.932;5.342;2022-08-21T16:21:30;8.57;;;2.20;;
17987;SDS011;9119;50.932;5.342;2022-08-21T16:23:57;9.37;;;2.47;;
17987;SDS011;9119;50.932;5.342;2022-08-21T16:26:22;12.37;;;3.50;;
17987;SDS011;9119;50.932;5.342;2022-08-21T16:28:48;8.43;;;2.40;;
17987;SDS011;9119;50.932;5.342;2022-08-21T16:31:17;8.13;;;2.37;;
17987;SDS011;9119;50.932;5.342;2022-08-21T16:33:43;8.00;;;2.20;;
17987;SDS011;9119;50.932;5.342;2022-08-21T16:36:13;9.30;;;2.70;;